createdAt,value
2023-02-24T00:00:17.892Z,8.79
2023-02-24T00:01:18.312Z,8.76
2023-02-24T00:02:17.957Z,8.79
2023-02-24T00:03:17.884Z,8.79
2023-02-24T00:04:17.852Z,8.82
2023-02-24T00:05:17.830Z,8.82
2023-02-24T00:06:17.837Z,8.82
2023-02-24T00:07:17.864Z,8.82
2023-02-24T00:08:17.780Z,8.87
2023-02-24T00:09:17.807Z,8.70
2023-02-24T00:10:17.775Z,8.74
2023-02-24T00:11:18.377Z,8.76
2023-02-24T00:12:17.769Z,8.74
2023-02-24T00:13:17.761Z,8.73
2023-02-24T00:14:17.802Z,8.69
2023-02-24T00:15:17.724Z,8.67
2023-02-24T00:16:17.907Z,8.64
2023-02-24T00:17:17.722Z,8.64
2023-02-24T00:18:17.696Z,8.67
2023-02-24T00:19:17.671Z,8.61
2023-02-24T00:20:17.676Z,8.69
2023-02-24T00:21:17.730Z,8.67
2023-02-24T00:22:17.660Z,8.69
2023-02-24T00:23:17.679Z,8.70
2023-02-24T00:24:17.629Z,8.56
2023-02-24T00:25:17.604Z,8.51
2023-02-24T00:26:17.592Z,8.63
2023-02-24T00:27:17.582Z,8.48
2023-02-24T00:28:17.591Z,8.46
2023-02-24T00:29:17.575Z,8.46
2023-02-24T00:30:17.650Z,8.52
2023-02-24T00:31:17.631Z,8.48
2023-02-24T00:32:17.771Z,8.48
2023-02-24T00:33:17.547Z,8.45
2023-02-24T00:34:17.519Z,8.51
2023-02-24T00:35:17.505Z,8.46
2023-02-24T00:36:17.518Z,8.46
2023-02-24T00:37:17.519Z,8.46
2023-02-24T00:38:17.536Z,8.46
2023-02-24T00:39:17.505Z,8.48
2023-02-24T00:40:17.479Z,8.48
2023-02-24T00:41:17.820Z,8.49
2023-02-24T00:42:17.458Z,8.45
2023-02-24T00:43:17.478Z,8.53
2023-02-24T00:44:17.444Z,8.49
2023-02-24T00:45:17.431Z,8.49
2023-02-24T00:46:17.628Z,8.48
2023-02-24T00:47:17.387Z,8.49
2023-02-24T00:48:17.393Z,8.46
2023-02-24T00:49:17.569Z,8.46
2023-02-24T00:50:17.377Z,8.53
2023-02-24T00:51:17.379Z,8.53
2023-02-24T00:52:17.341Z,8.60
2023-02-24T00:53:17.727Z,8.48
2023-02-24T00:54:17.339Z,8.49
2023-02-24T00:55:17.291Z,8.49
2023-02-24T00:56:17.280Z,8.44
2023-02-24T00:57:17.289Z,8.37
2023-02-24T00:58:17.264Z,8.44
2023-02-24T00:59:17.262Z,8.42
2023-02-24T01:00:17.246Z,8.44
2023-02-24T01:01:17.317Z,8.46
2023-02-24T01:02:17.251Z,8.31
2023-02-24T01:03:17.220Z,8.37
2023-02-24T01:04:17.275Z,8.37
2023-02-24T01:05:17.262Z,8.38
2023-02-24T01:06:17.193Z,8.38
2023-02-24T01:07:17.171Z,8.30
2023-02-24T01:08:17.167Z,8.30
2023-02-24T01:09:17.151Z,8.20
2023-02-24T01:10:17.137Z,8.26
2023-02-24T01:11:17.129Z,8.09
2023-02-24T01:12:17.211Z,8.09
2023-02-24T01:13:17.088Z,8.13
2023-02-24T01:14:17.108Z,8.15
2023-02-24T01:15:17.074Z,8.09
2023-02-24T01:16:17.177Z,8.23
2023-02-24T01:17:17.060Z,8.24
2023-02-24T01:18:17.084Z,8.18
2023-02-24T01:19:17.041Z,8.19
2023-02-24T01:20:17.101Z,8.18
2023-02-24T01:21:17.024Z,8.20
2023-02-24T01:22:17.002Z,8.10
2023-02-24T01:23:17.053Z,8.08
2023-02-24T01:24:17.027Z,8.16
2023-02-24T01:25:17.003Z,8.15
2023-02-24T01:26:16.978Z,8.06
2023-02-24T01:27:16.948Z,8.08
2023-02-24T01:28:16.952Z,8.03
2023-02-24T01:29:16.921Z,8.09
2023-02-24T01:30:16.932Z,8.09
2023-02-24T01:31:17.112Z,8.12
2023-02-24T01:32:17.390Z,8.16
2023-02-24T01:33:17.003Z,8.03
2023-02-24T01:34:16.903Z,8.08
2023-02-24T01:35:16.911Z,8.09
2023-02-24T01:36:16.861Z,8.08
2023-02-24T01:37:16.851Z,8.08
2023-02-24T01:38:16.876Z,8.06
2023-02-24T01:39:16.821Z,8.03
2023-02-24T01:40:16.807Z,8.10
2023-02-24T01:41:16.831Z,8.05
2023-02-24T01:42:16.869Z,8.03
2023-02-24T01:43:16.777Z,8.06
2023-02-24T01:44:16.758Z,7.97
2023-02-24T01:45:16.778Z,7.93
2023-02-24T01:46:16.821Z,7.95
2023-02-24T01:47:16.768Z,7.98
2023-02-24T01:48:16.764Z,7.98
2023-02-24T01:49:16.724Z,8.00
2023-02-24T01:50:16.727Z,7.97
2023-02-24T01:51:16.696Z,8.05
2023-02-24T01:52:16.718Z,7.91
2023-02-24T01:53:16.672Z,7.98
2023-02-24T01:54:16.672Z,8.01
2023-02-24T01:55:16.657Z,7.95
2023-02-24T01:56:16.631Z,7.95
2023-02-24T01:57:16.661Z,7.97
2023-02-24T01:58:16.645Z,7.95
2023-02-24T01:59:16.611Z,7.98
2023-02-24T02:00:16.596Z,7.94
2023-02-24T02:01:16.640Z,7.93
2023-02-24T02:02:16.689Z,7.95
2023-02-24T02:03:16.559Z,8.00
2023-02-24T02:04:16.560Z,8.00
2023-02-24T02:05:16.546Z,8.00
2023-02-24T02:06:16.543Z,8.09
2023-02-24T02:07:16.513Z,8.01
2023-02-24T02:08:16.508Z,7.97
2023-02-24T02:09:16.496Z,7.97
2023-02-24T02:10:16.480Z,8.01
2023-02-24T02:11:16.471Z,7.90
2023-02-24T02:12:16.453Z,7.98
2023-02-24T02:13:16.457Z,7.95
2023-02-24T02:14:16.425Z,8.03
2023-02-24T02:15:16.415Z,8.00
2023-02-24T02:16:16.481Z,7.98
2023-02-24T02:17:16.384Z,8.01
2023-02-24T02:18:16.396Z,8.03
2023-02-24T02:19:16.376Z,7.98
2023-02-24T02:20:16.379Z,7.97
2023-02-24T02:21:16.348Z,8.05
2023-02-24T02:22:16.372Z,7.91
2023-02-24T02:23:16.337Z,7.98
2023-02-24T02:24:16.318Z,7.90
2023-02-24T02:25:16.310Z,7.88
2023-02-24T02:26:16.291Z,7.90
2023-02-24T02:27:16.292Z,7.90
2023-02-24T02:28:16.271Z,7.93
2023-02-24T02:29:16.262Z,7.93
2023-02-24T02:30:16.260Z,7.98
2023-02-24T02:31:16.427Z,7.93
2023-02-24T02:32:16.367Z,7.93
2023-02-24T02:33:16.217Z,7.93
2023-02-24T02:34:16.204Z,7.95
2023-02-24T02:35:16.184Z,7.93
2023-02-24T02:36:16.187Z,7.95
2023-02-24T02:37:16.184Z,8.00
2023-02-24T02:38:16.191Z,7.98
2023-02-24T02:39:16.154Z,7.98
2023-02-24T02:40:16.136Z,8.01
2023-02-24T02:41:16.144Z,7.98
2023-02-24T02:42:16.118Z,7.94
2023-02-24T02:43:16.104Z,7.95
2023-02-24T02:44:16.093Z,7.95
2023-02-24T02:45:16.102Z,7.94
2023-02-24T02:46:16.173Z,7.93
2023-02-24T02:47:16.081Z,7.85
2023-02-24T02:48:16.052Z,8.00
2023-02-24T02:49:16.043Z,7.90
2023-02-24T02:50:16.034Z,7.91
2023-02-24T02:51:15.999Z,7.95
2023-02-24T02:52:16.006Z,7.87
2023-02-24T02:53:15.977Z,7.90
2023-02-24T02:54:16.008Z,7.88
2023-02-24T02:55:15.969Z,7.95
2023-02-24T02:56:15.962Z,7.91
2023-02-24T02:57:15.960Z,7.76
2023-02-24T02:58:15.929Z,7.87
2023-02-24T02:59:15.921Z,7.87
2023-02-24T03:00:15.912Z,7.88
2023-02-24T03:01:15.948Z,7.95
2023-02-24T03:02:15.886Z,7.88
2023-02-24T03:03:15.876Z,7.93
2023-02-24T03:04:15.860Z,7.90
2023-02-24T03:05:15.858Z,7.79
2023-02-24T03:06:15.837Z,7.76
2023-02-24T03:07:15.828Z,7.79
2023-02-24T03:08:15.822Z,7.79
2023-02-24T03:09:15.835Z,7.90
2023-02-24T03:10:15.815Z,7.88
2023-02-24T03:11:15.778Z,7.88
2023-02-24T03:12:15.779Z,7.93
2023-02-24T03:13:15.761Z,7.88
2023-02-24T03:14:15.745Z,7.93
2023-02-24T03:15:15.742Z,7.87
2023-02-24T03:16:15.763Z,7.90
2023-02-24T03:17:15.712Z,7.80
2023-02-24T03:18:15.699Z,7.91
2023-02-24T03:19:15.694Z,7.88
2023-02-24T03:20:15.691Z,7.88
2023-02-24T03:21:15.677Z,7.88
2023-02-24T03:22:15.866Z,7.91
2023-02-24T03:23:15.657Z,7.83
2023-02-24T03:24:15.634Z,7.82
2023-02-24T03:25:15.642Z,7.82
2023-02-24T03:26:15.636Z,7.85
2023-02-24T03:27:15.600Z,7.88
2023-02-24T03:28:15.596Z,7.75
2023-02-24T03:29:15.586Z,7.77
2023-02-24T03:30:15.563Z,7.67
2023-02-24T03:31:15.626Z,7.61
2023-02-24T03:32:15.737Z,7.61
2023-02-24T03:33:15.543Z,7.63
2023-02-24T03:34:15.528Z,7.66
2023-02-24T03:35:15.521Z,7.57
2023-02-24T03:36:15.500Z,7.54
2023-02-24T03:37:15.493Z,7.50
2023-02-24T03:38:15.496Z,7.57
2023-02-24T03:39:15.457Z,7.58
2023-02-24T03:40:15.474Z,7.61
2023-02-24T03:41:15.444Z,7.61
2023-02-24T03:42:15.464Z,7.63
2023-02-24T03:43:16.364Z,7.58
2023-02-24T03:44:15.420Z,7.61
2023-02-24T03:45:15.397Z,7.58
2023-02-24T03:46:15.470Z,7.61
2023-02-24T03:47:15.402Z,7.66
2023-02-24T03:48:15.365Z,7.66
2023-02-24T03:49:15.376Z,7.75
2023-02-24T03:50:15.376Z,7.61
2023-02-24T03:51:15.343Z,7.57
2023-02-24T03:52:15.684Z,7.61
2023-02-24T03:53:15.356Z,7.66
2023-02-24T03:54:15.322Z,7.58
2023-02-24T03:55:15.292Z,7.57
2023-02-24T03:56:15.269Z,7.56
2023-02-24T03:57:15.250Z,7.54
2023-02-24T03:58:15.300Z,7.56
2023-02-24T03:59:15.282Z,7.61
2023-02-24T04:00:15.225Z,7.60
2023-02-24T04:01:15.210Z,7.69
2023-02-24T04:02:15.256Z,7.54
2023-02-24T04:03:15.180Z,7.58
2023-02-24T04:04:15.228Z,7.60
2023-02-24T04:05:15.159Z,7.50
2023-02-24T04:06:15.151Z,7.53
2023-02-24T04:07:15.137Z,7.48
2023-02-24T04:08:15.128Z,7.40
2023-02-24T04:09:15.131Z,7.43
2023-02-24T04:10:15.123Z,7.47
2023-02-24T04:11:15.098Z,7.40
2023-02-24T04:12:15.271Z,7.40
2023-02-24T04:13:15.136Z,7.45
2023-02-24T04:14:15.124Z,7.43
2023-02-24T04:15:15.122Z,7.42
2023-02-24T04:16:15.147Z,7.48
2023-02-24T04:17:15.024Z,7.50
2023-02-24T04:18:15.039Z,7.43
2023-02-24T04:19:15.013Z,7.53
2023-02-24T04:20:15.013Z,7.45
2023-02-24T04:21:14.982Z,7.45
2023-02-24T04:22:14.970Z,7.40
2023-02-24T04:23:14.967Z,7.45
2023-02-24T04:24:14.940Z,7.47
2023-02-24T04:25:14.936Z,7.51
2023-02-24T04:26:14.939Z,7.60
2023-02-24T04:27:14.949Z,7.50
2023-02-24T04:28:14.915Z,7.51
2023-02-24T04:29:14.922Z,7.51
2023-02-24T04:30:14.958Z,7.48
2023-02-24T04:31:15.307Z,7.48
2023-02-24T04:32:15.139Z,7.51
2023-02-24T04:33:14.918Z,7.45
2023-02-24T04:34:14.851Z,7.48
2023-02-24T04:35:14.831Z,7.53
2023-02-24T04:36:14.855Z,7.43
2023-02-24T04:37:14.849Z,7.40
2023-02-24T04:38:15.001Z,7.42
2023-02-24T04:39:14.825Z,7.38
2023-02-24T04:40:14.788Z,7.40
2023-02-24T04:41:14.800Z,7.39
2023-02-24T04:42:14.814Z,7.31
2023-02-24T04:43:14.798Z,7.39
2023-02-24T04:44:14.770Z,7.38
2023-02-24T04:45:14.744Z,7.33
2023-02-24T04:46:14.798Z,7.38
2023-02-24T04:47:14.713Z,7.38
2023-02-24T04:48:14.754Z,7.36
2023-02-24T04:49:14.729Z,7.39
2023-02-24T04:50:14.671Z,7.38
2023-02-24T04:51:14.862Z,7.32
2023-02-24T04:52:14.657Z,7.28
2023-02-24T04:53:14.671Z,7.31
2023-02-24T04:54:14.621Z,7.36
2023-02-24T04:55:14.672Z,7.39
2023-02-24T04:56:14.623Z,7.38
2023-02-24T04:57:14.609Z,7.32
2023-02-24T04:58:14.567Z,7.33
2023-02-24T04:59:14.570Z,7.36
2023-02-24T05:00:14.547Z,7.40
2023-02-24T05:01:14.529Z,7.39
2023-02-24T05:02:14.566Z,7.32
2023-02-24T05:03:14.521Z,7.33
2023-02-24T05:04:14.678Z,7.36
2023-02-24T05:05:14.535Z,7.29
2023-02-24T05:06:14.525Z,7.29
2023-02-24T05:07:14.484Z,7.33
2023-02-24T05:08:14.480Z,7.29
2023-02-24T05:09:14.470Z,7.32
2023-02-24T05:10:14.460Z,7.33
2023-02-24T05:11:14.427Z,7.28
2023-02-24T05:12:14.463Z,7.33
2023-02-24T05:13:14.444Z,7.38
2023-02-24T05:14:14.451Z,7.35
2023-02-24T05:15:14.416Z,7.38
2023-02-24T05:16:14.418Z,7.36
2023-02-24T05:17:14.393Z,7.36
2023-02-24T05:18:14.400Z,7.32
2023-02-24T05:19:14.393Z,7.33
2023-02-24T05:20:14.364Z,7.25
2023-02-24T05:21:14.360Z,7.29
2023-02-24T05:22:14.330Z,7.38
2023-02-24T05:23:14.327Z,7.33
2023-02-24T05:24:14.327Z,7.32
2023-02-24T05:25:14.300Z,7.47
2023-02-24T05:26:14.293Z,7.48
2023-02-24T05:27:14.268Z,7.47
2023-02-24T05:28:14.256Z,7.43
2023-02-24T05:29:14.240Z,7.47
2023-02-24T05:30:14.218Z,7.45
2023-02-24T05:31:14.305Z,7.51
2023-02-24T05:32:14.364Z,7.43
2023-02-24T05:33:14.186Z,7.48
2023-02-24T05:34:14.232Z,7.54
2023-02-24T05:35:14.166Z,7.48
2023-02-24T05:36:14.137Z,7.50
2023-02-24T05:37:14.143Z,7.38
2023-02-24T05:38:14.156Z,7.43
2023-02-24T05:39:14.115Z,7.47
2023-02-24T05:40:14.106Z,7.40
2023-02-24T05:41:14.094Z,7.28
2023-02-24T05:42:14.083Z,7.18
2023-02-24T05:43:14.063Z,7.07
2023-02-24T05:44:14.052Z,7.11
2023-02-24T05:45:14.055Z,6.99
2023-02-24T05:46:14.048Z,6.97
2023-02-24T05:47:14.073Z,6.96
2023-02-24T05:48:14.020Z,6.93
2023-02-24T05:49:14.012Z,6.89
2023-02-24T05:50:14.003Z,6.82
2023-02-24T05:51:14.001Z,6.82
2023-02-24T05:52:13.988Z,6.87
2023-02-24T05:53:13.960Z,6.78
2023-02-24T05:54:13.948Z,6.81
2023-02-24T05:55:14.011Z,6.74
2023-02-24T05:56:13.912Z,6.70
2023-02-24T05:57:13.929Z,6.67
2023-02-24T05:58:13.904Z,6.56
2023-02-24T05:59:13.918Z,6.59
2023-02-24T06:00:13.918Z,6.60
2023-02-24T06:01:13.854Z,6.54
2023-02-24T06:02:13.915Z,6.57
2023-02-24T06:03:13.893Z,6.66
2023-02-24T06:04:13.818Z,6.59
2023-02-24T06:05:13.808Z,6.64
2023-02-24T06:06:13.836Z,6.66
2023-02-24T06:07:13.973Z,6.59
2023-02-24T06:08:13.788Z,6.62
2023-02-24T06:09:13.757Z,6.64
2023-02-24T06:10:13.745Z,6.63
2023-02-24T06:11:13.737Z,6.45
2023-02-24T06:12:13.742Z,6.54
2023-02-24T06:13:13.732Z,6.46
2023-02-24T06:14:13.731Z,6.56
2023-02-24T06:15:13.700Z,6.60
2023-02-24T06:16:13.745Z,6.60
2023-02-24T06:17:13.653Z,6.57
2023-02-24T06:18:13.667Z,6.56
2023-02-24T06:19:13.672Z,6.66
2023-02-24T06:20:13.692Z,6.52
2023-02-24T06:21:13.634Z,6.54
2023-02-24T06:22:13.642Z,6.57
2023-02-24T06:23:13.627Z,6.54
2023-02-24T06:24:13.594Z,6.64
2023-02-24T06:25:13.564Z,6.66
2023-02-24T06:26:13.545Z,6.66
2023-02-24T06:27:13.542Z,6.67
2023-02-24T06:28:13.520Z,6.67
2023-02-24T06:29:13.534Z,6.52
2023-02-24T06:30:13.538Z,6.62
2023-02-24T06:31:13.493Z,6.62
2023-02-24T06:32:13.698Z,6.56
2023-02-24T06:33:13.492Z,6.59
2023-02-24T06:34:13.500Z,6.57
2023-02-24T06:35:13.506Z,6.49
2023-02-24T06:36:13.468Z,6.59
2023-02-24T06:37:13.423Z,6.56
2023-02-24T06:38:13.488Z,6.51
2023-02-24T06:39:13.433Z,6.62
2023-02-24T06:40:13.392Z,6.52
2023-02-24T06:41:13.412Z,6.57
2023-02-24T06:42:13.401Z,6.60
2023-02-24T06:43:13.365Z,6.56
2023-02-24T06:44:13.336Z,6.56
2023-02-24T06:45:13.324Z,6.64
2023-02-24T06:46:13.445Z,6.64
2023-02-24T06:47:13.383Z,6.63
2023-02-24T06:48:13.314Z,6.56
2023-02-24T06:49:13.348Z,6.62
2023-02-24T06:50:13.282Z,6.62
2023-02-24T06:51:13.295Z,6.54
2023-02-24T06:52:13.271Z,6.56
2023-02-24T06:53:13.258Z,6.42
2023-02-24T06:54:13.257Z,6.42
2023-02-24T06:55:13.237Z,6.33
2023-02-24T06:56:13.230Z,6.44
2023-02-24T06:57:13.212Z,6.42
2023-02-24T06:58:13.198Z,6.39
2023-02-24T06:59:13.182Z,6.28
2023-02-24T07:00:13.148Z,6.20
2023-02-24T07:01:13.195Z,6.24
2023-02-24T07:02:13.129Z,6.28
2023-02-24T07:03:13.120Z,6.35
2023-02-24T07:04:13.218Z,6.17
2023-02-24T07:05:13.080Z,6.36
2023-02-24T07:06:13.090Z,6.41
2023-02-24T07:07:13.112Z,6.30
2023-02-24T07:08:13.091Z,6.30
2023-02-24T07:09:13.114Z,6.33
2023-02-24T07:10:13.070Z,6.42
2023-02-24T07:11:13.048Z,6.33
2023-02-24T07:12:13.020Z,6.39
2023-02-24T07:13:13.036Z,6.33
2023-02-24T07:14:13.008Z,6.33
2023-02-24T07:15:12.964Z,6.45
2023-02-24T07:16:12.987Z,6.30
2023-02-24T07:17:12.953Z,6.35
2023-02-24T07:18:12.950Z,6.16
2023-02-24T07:19:12.960Z,6.22
2023-02-24T07:20:12.916Z,6.17
2023-02-24T07:21:12.952Z,6.24
2023-02-24T07:22:12.927Z,6.20
2023-02-24T07:23:12.877Z,6.17
2023-02-24T07:24:12.876Z,6.20
2023-02-24T07:25:12.879Z,6.26
2023-02-24T07:26:12.858Z,6.24
2023-02-24T07:27:12.836Z,6.31
2023-02-24T07:28:12.812Z,6.30
2023-02-24T07:29:12.830Z,6.26
2023-02-24T07:30:12.816Z,6.16
2023-02-24T07:31:12.905Z,6.16
2023-02-24T07:32:13.047Z,6.22
2023-02-24T07:33:12.755Z,6.02
2023-02-24T07:34:12.753Z,6.04
2023-02-24T07:35:12.773Z,5.99
2023-02-24T07:36:12.726Z,5.90
2023-02-24T07:37:12.694Z,5.87
2023-02-24T07:38:12.710Z,5.91
2023-02-24T07:39:12.680Z,5.75
2023-02-24T07:40:12.668Z,5.75
2023-02-24T07:41:12.654Z,5.72
2023-02-24T07:42:12.661Z,5.64
2023-02-24T07:43:12.630Z,5.56
2023-02-24T07:44:12.610Z,5.56
2023-02-24T07:45:12.689Z,5.50
2023-02-24T07:46:12.649Z,5.39
2023-02-24T07:47:12.566Z,5.50
2023-02-24T07:48:12.560Z,5.44
2023-02-24T07:49:12.556Z,5.41
2023-02-24T07:50:12.553Z,5.53
2023-02-24T07:51:12.567Z,5.38
2023-02-24T07:52:12.547Z,5.47
2023-02-24T07:53:12.496Z,5.38
2023-02-24T07:54:12.490Z,5.46
2023-02-24T07:55:12.525Z,5.56
2023-02-24T07:56:12.493Z,5.53
2023-02-24T07:57:12.473Z,5.54
2023-02-24T07:58:12.478Z,5.68
2023-02-24T07:59:12.426Z,5.62
2023-02-24T08:00:14.576Z,5.79
2023-02-24T08:01:12.440Z,5.73
2023-02-24T08:02:12.447Z,5.80
2023-02-24T08:03:12.391Z,5.84
2023-02-24T08:04:12.498Z,5.75
2023-02-24T08:05:12.453Z,5.79
2023-02-24T08:06:12.364Z,5.69
2023-02-24T08:07:12.370Z,5.69
2023-02-24T08:08:12.384Z,5.84
2023-02-24T08:09:12.303Z,5.91
2023-02-24T08:10:12.345Z,5.91
2023-02-24T08:11:12.324Z,5.80
2023-02-24T08:12:12.290Z,5.69
2023-02-24T08:13:12.274Z,5.69
2023-02-24T08:14:12.296Z,5.76
2023-02-24T08:15:12.260Z,5.79
2023-02-24T08:16:12.287Z,5.73
2023-02-24T08:17:12.203Z,5.84
2023-02-24T08:18:12.188Z,5.93
2023-02-24T08:19:12.175Z,6.04
2023-02-24T08:20:12.217Z,6.05
2023-02-24T08:21:12.152Z,6.01
2023-02-24T08:22:12.135Z,5.98
2023-02-24T08:23:12.136Z,6.05
2023-02-24T08:24:12.107Z,5.98
2023-02-24T08:25:12.116Z,6.05
2023-02-24T08:26:12.200Z,6.08
2023-02-24T08:27:12.123Z,6.22
2023-02-24T08:28:12.316Z,6.26
2023-02-24T08:29:12.071Z,6.22
2023-02-24T08:30:12.071Z,6.11
2023-02-24T08:31:12.198Z,6.04
2023-02-24T08:32:12.162Z,6.07
2023-02-24T08:33:12.005Z,6.16
2023-02-24T08:34:12.041Z,6.19
2023-02-24T08:35:11.976Z,6.17
2023-02-24T08:36:12.017Z,6.17
2023-02-24T08:37:11.971Z,6.27
2023-02-24T08:38:11.969Z,6.30
2023-02-24T08:39:11.998Z,6.36
2023-02-24T08:40:11.952Z,6.35
2023-02-24T08:41:11.956Z,6.20
2023-02-24T08:42:11.945Z,6.20
2023-02-24T08:43:11.904Z,6.27
2023-02-24T08:44:11.907Z,6.30
2023-02-24T08:45:11.885Z,6.20
2023-02-24T08:46:11.949Z,6.24
2023-02-24T08:47:11.856Z,6.31
2023-02-24T08:48:11.836Z,6.30
2023-02-24T08:49:12.045Z,6.31
2023-02-24T08:50:11.824Z,6.30
2023-02-24T08:51:11.785Z,6.30
2023-02-24T08:52:11.794Z,6.36
2023-02-24T08:53:11.810Z,6.41
2023-02-24T08:54:11.795Z,6.46
2023-02-24T08:55:11.764Z,6.46
2023-02-24T08:56:11.867Z,6.45
2023-02-24T08:57:11.738Z,6.41
2023-02-24T08:58:11.708Z,6.52
2023-02-24T08:59:11.699Z,6.48
2023-02-24T09:00:11.676Z,6.49
2023-02-24T09:01:11.700Z,6.59
2023-02-24T09:02:11.679Z,6.62
2023-02-24T09:03:11.654Z,6.49
2023-02-24T09:04:11.730Z,6.56
2023-02-24T09:05:14.317Z,6.64
2023-02-24T09:06:11.608Z,6.63
2023-02-24T09:07:12.211Z,6.66
2023-02-24T09:08:11.622Z,6.62
2023-02-24T09:09:11.579Z,6.66
2023-02-24T09:10:11.657Z,6.70
2023-02-24T09:11:11.583Z,6.70
2023-02-24T09:12:11.530Z,6.75
2023-02-24T09:13:11.526Z,6.74
2023-02-24T09:14:24.707Z,6.77
2023-02-24T09:15:11.499Z,6.81
2023-02-24T09:16:11.531Z,6.79
2023-02-24T09:17:11.912Z,6.81
2023-02-24T09:18:11.525Z,6.81
2023-02-24T09:19:11.456Z,6.93
2023-02-24T09:20:11.470Z,6.95
2023-02-24T09:21:11.448Z,6.95
2023-02-24T09:22:20.783Z,6.97
2023-02-24T09:23:11.427Z,6.97
2023-02-24T09:24:11.413Z,6.97
2023-02-24T09:25:11.431Z,6.95
2023-02-24T09:26:11.458Z,6.96
2023-02-24T09:27:11.368Z,7.00
2023-02-24T09:28:11.408Z,7.00
2023-02-24T09:29:11.344Z,6.93
2023-02-24T09:30:11.358Z,7.06
2023-02-24T09:31:11.480Z,7.13
2023-02-24T09:32:11.431Z,7.14
2023-02-24T09:33:11.546Z,7.11
2023-02-24T09:34:11.295Z,7.15
2023-02-24T09:35:11.268Z,7.14
2023-02-24T09:36:11.251Z,7.21
2023-02-24T09:37:11.253Z,7.23
2023-02-24T09:38:11.236Z,7.31
2023-02-24T09:39:11.234Z,7.45
2023-02-24T09:40:11.250Z,7.47
2023-02-24T09:41:18.924Z,7.47
2023-02-24T09:42:11.198Z,7.42
2023-02-24T09:43:11.184Z,7.58
2023-02-24T09:44:11.177Z,7.63
2023-02-24T09:45:11.157Z,7.61
2023-02-24T09:46:11.432Z,7.63
2023-02-24T09:47:11.152Z,7.54
2023-02-24T09:48:11.115Z,7.60
2023-02-24T09:49:11.138Z,7.66
2023-02-24T09:50:11.119Z,7.51
2023-02-24T09:51:11.102Z,7.50
2023-02-24T09:52:11.114Z,7.61
2023-02-24T09:53:11.591Z,7.76
2023-02-24T09:54:11.065Z,7.88
2023-02-24T09:55:11.049Z,7.76
2023-02-24T09:56:11.029Z,7.83
2023-02-24T09:57:11.176Z,7.93
2023-02-24T09:58:11.013Z,8.06
2023-02-24T09:59:11.015Z,8.18
2023-02-24T10:00:10.987Z,8.13
2023-02-24T10:01:10.992Z,8.46
2023-02-24T10:02:11.102Z,8.81
2023-02-24T10:03:10.955Z,9.23
2023-02-24T10:04:20.206Z,9.26
2023-02-24T10:05:10.924Z,9.26
2023-02-24T10:06:10.934Z,9.37
2023-02-24T10:07:10.905Z,9.51
2023-02-24T10:08:10.902Z,9.44
2023-02-24T10:09:10.890Z,9.39
2023-02-24T10:10:10.880Z,9.36
2023-02-24T10:11:10.852Z,9.36
2023-02-24T10:12:10.899Z,9.25
2023-02-24T10:13:10.826Z,9.23
2023-02-24T10:14:10.857Z,9.23
2023-02-24T10:15:10.815Z,9.26
2023-02-24T10:16:10.815Z,9.08
2023-02-24T10:17:10.790Z,9.23
2023-02-24T10:18:10.790Z,9.59
2023-02-24T10:19:10.826Z,10.05
2023-02-24T10:20:10.770Z,10.51
2023-02-24T10:21:10.962Z,10.75
2023-02-24T10:22:10.775Z,11.08
2023-02-24T10:23:10.724Z,10.79
2023-02-24T10:24:10.721Z,10.61
2023-02-24T10:25:10.724Z,10.74
2023-02-24T10:26:10.734Z,10.90
2023-02-24T10:27:16.846Z,11.10
2023-02-24T10:28:10.699Z,11.15
2023-02-24T10:29:10.663Z,11.26
2023-02-24T10:30:10.680Z,11.27
2023-02-24T10:31:10.915Z,11.19
2023-02-24T10:32:11.044Z,11.02
2023-02-24T10:33:10.672Z,10.84
2023-02-24T10:34:10.631Z,10.69
2023-02-24T10:35:10.632Z,10.84
2023-02-24T10:36:10.641Z,10.75
2023-02-24T10:37:16.553Z,10.59
2023-02-24T10:38:10.649Z,10.61
2023-02-24T10:39:10.612Z,10.48
2023-02-24T10:40:10.632Z,10.15
2023-02-24T10:41:10.589Z,9.91
2023-02-24T10:42:10.607Z,10.02
2023-02-24T10:43:10.989Z,10.10
2023-02-24T10:44:10.537Z,10.13
2023-02-24T10:45:10.658Z,10.19
2023-02-24T10:46:10.549Z,10.28
2023-02-24T10:47:10.507Z,10.38
2023-02-24T10:48:12.356Z,10.38
2023-02-24T10:49:10.532Z,10.33
2023-02-24T10:50:10.494Z,10.25
2023-02-24T10:51:10.468Z,10.46
2023-02-24T10:52:10.479Z,10.40
2023-02-24T10:53:10.500Z,10.48
2023-02-24T10:54:10.605Z,10.63
2023-02-24T10:55:10.432Z,10.74
2023-02-24T10:56:10.497Z,10.82
2023-02-24T10:57:10.418Z,10.64
2023-02-24T10:58:10.404Z,10.63
2023-02-24T10:59:10.392Z,10.67
2023-02-24T11:00:10.391Z,10.64
2023-02-24T11:01:10.387Z,10.49
2023-02-24T11:02:10.401Z,10.49
2023-02-24T11:03:10.361Z,10.41
2023-02-24T11:04:10.343Z,10.37
2023-02-24T11:05:10.337Z,10.33
2023-02-24T11:06:10.316Z,10.20
2023-02-24T11:07:10.380Z,10.13
2023-02-24T11:08:10.353Z,10.25
2023-02-24T11:09:10.338Z,10.19
2023-02-24T11:10:10.531Z,10.15
2023-02-24T11:11:10.320Z,10.13
2023-02-24T11:12:10.306Z,10.19
2023-02-24T11:13:10.718Z,10.05
2023-02-24T11:14:10.275Z,10.15
2023-02-24T11:15:10.267Z,10.12
2023-02-24T11:16:10.318Z,10.15
2023-02-24T11:17:10.224Z,10.10
2023-02-24T11:18:10.202Z,10.15
2023-02-24T11:19:10.247Z,10.26
2023-02-24T11:20:10.217Z,10.33
2023-02-24T11:21:10.181Z,10.35
2023-02-24T11:22:10.169Z,10.34
2023-02-24T11:23:10.202Z,10.34
2023-02-24T11:24:10.161Z,10.40
2023-02-24T11:25:10.199Z,10.33
2023-02-24T11:26:10.494Z,10.38
2023-02-24T11:27:10.135Z,10.37
2023-02-24T11:28:10.130Z,10.40
2023-02-24T11:29:10.500Z,10.38
2023-02-24T11:30:10.098Z,10.37
2023-02-24T11:31:10.217Z,10.25
2023-02-24T11:32:12.680Z,10.41
2023-02-24T11:33:10.066Z,10.34
2023-02-24T11:34:10.114Z,10.23
2023-02-24T11:35:10.104Z,10.20
2023-02-24T11:36:10.965Z,10.15
2023-02-24T11:37:10.648Z,9.91
2023-02-24T11:38:10.490Z,9.74
2023-02-24T11:39:18.863Z,9.69
2023-02-24T11:40:10.065Z,9.66
2023-02-24T11:41:10.411Z,9.80
2023-02-24T11:42:10.052Z,9.69
2023-02-24T11:43:10.432Z,9.80
2023-02-24T11:44:12.125Z,9.84
2023-02-24T11:45:10.427Z,9.79
2023-02-24T11:46:09.976Z,9.77
2023-02-24T11:47:09.956Z,9.82
2023-02-24T11:48:09.945Z,9.80
2023-02-24T11:49:10.339Z,9.72
2023-02-24T11:50:09.940Z,9.64
2023-02-24T11:51:09.894Z,9.82
2023-02-24T11:52:09.903Z,9.76
2023-02-24T11:53:09.880Z,9.83
2023-02-24T11:54:09.886Z,9.79
2023-02-24T11:55:09.840Z,9.84
2023-02-24T11:56:09.872Z,9.83
2023-02-24T11:57:09.854Z,9.76
2023-02-24T11:58:09.868Z,9.64
2023-02-24T11:59:09.822Z,9.72
2023-02-24T12:00:09.857Z,9.68
2023-02-24T12:01:09.819Z,9.59
2023-02-24T12:02:09.809Z,9.40
2023-02-24T12:03:09.879Z,9.19
2023-02-24T12:04:09.796Z,9.23
2023-02-24T12:05:09.759Z,9.34
2023-02-24T12:06:09.846Z,9.40
2023-02-24T12:07:09.775Z,9.40
2023-02-24T12:08:09.747Z,9.39
2023-02-24T12:09:09.741Z,9.36
2023-02-24T12:10:17.174Z,9.31
2023-02-24T12:11:09.725Z,9.10
2023-02-24T12:12:11.201Z,9.08
2023-02-24T12:13:09.673Z,9.03
2023-02-24T12:14:09.680Z,8.94
2023-02-24T12:15:09.645Z,9.00
2023-02-24T12:16:09.707Z,8.92
2023-02-24T12:17:09.637Z,8.97
2023-02-24T12:18:09.658Z,8.91
2023-02-24T12:19:09.642Z,8.94
2023-02-24T12:20:09.619Z,8.92
2023-02-24T12:21:09.595Z,8.95
2023-02-24T12:22:09.572Z,8.84
2023-02-24T12:23:09.599Z,8.91
2023-02-24T12:24:09.575Z,8.79
2023-02-24T12:25:09.557Z,8.78
2023-02-24T12:26:09.538Z,8.79
2023-02-24T12:27:09.533Z,8.85
2023-02-24T12:28:09.528Z,8.74
2023-02-24T12:29:09.510Z,8.71
2023-02-24T12:30:09.528Z,8.76
2023-02-24T12:31:09.631Z,8.64
2023-02-24T12:32:09.609Z,8.79
2023-02-24T12:33:09.467Z,8.79
2023-02-24T12:34:09.521Z,8.85
2023-02-24T12:35:09.476Z,8.87
2023-02-24T12:36:09.454Z,8.91
2023-02-24T12:37:09.444Z,8.97
2023-02-24T12:38:09.430Z,8.95
2023-02-24T12:39:09.396Z,8.94
2023-02-24T12:40:09.419Z,9.02
2023-02-24T12:41:09.384Z,9.03
2023-02-24T12:42:09.409Z,9.02
2023-02-24T12:43:09.355Z,9.08
2023-02-24T12:44:09.340Z,9.10
2023-02-24T12:45:09.332Z,9.08
2023-02-24T12:46:09.441Z,9.11
2023-02-24T12:47:09.323Z,9.23
2023-02-24T12:48:09.287Z,9.16
2023-02-24T12:49:09.295Z,9.18
2023-02-24T12:50:09.297Z,9.13
2023-02-24T12:51:09.271Z,9.03
2023-02-24T12:52:09.248Z,9.02
2023-02-24T12:53:09.255Z,9.03
2023-02-24T12:54:09.250Z,8.97
2023-02-24T12:55:09.238Z,9.03
2023-02-24T12:56:09.237Z,8.97
2023-02-24T12:57:09.229Z,8.95
2023-02-24T12:58:09.188Z,8.88
2023-02-24T12:59:09.221Z,8.78
2023-02-24T13:00:09.176Z,8.84
2023-02-24T13:01:09.190Z,8.76
2023-02-24T13:02:09.295Z,8.79
2023-02-24T13:03:09.172Z,8.82
2023-02-24T13:04:09.346Z,8.84
2023-02-24T13:05:10.311Z,8.87
2023-02-24T13:06:09.091Z,8.88
2023-02-24T13:07:09.089Z,8.94
2023-02-24T13:08:09.075Z,8.91
2023-02-24T13:09:09.073Z,8.95
2023-02-24T13:10:09.058Z,8.88
2023-02-24T13:11:09.031Z,8.79
2023-02-24T13:12:09.023Z,8.81
2023-02-24T13:13:09.018Z,8.82
2023-02-24T13:14:09.010Z,8.81
2023-02-24T13:15:09.005Z,8.82